sensor_id;sensor_type;location;lat;lon;timestamp;temperature;humidity
14049;DHT22;7099;53.922;10.728;2022-09-17T00:03:36;12.50;99.90
14049;DHT22;7099;53.922;10.728;2022-09-17T00:08:05;12.50;99.90
14049;DHT22;7099;53.922;10.728;2022-09-17T00:12:31;12.50;99.90
14049;DHT22;7099;53.922;10.728;2022-09-17T00:16:56;12.50;99.90
14049;DHT22;7099;53.922;10.728;2022-09-17T00:21:26;12.50;99.90
14049;DHT22;7099;53.922;10.728;2022-09-17T00:25:51;12.50;99.90
14049;DHT22;7099;53.922;10.728;2022-09-17T00:30:17;12.50;99.90
14049;DHT22;7099;53.922;10.728;2022-09-17T00:34:42;12.50;99.90
14049;DHT22;7099;53.922;10.728;2022-09-17T00:39:09;12.50;99.90
14049;DHT22;7099;53.922;10.728;2022-09-17T00:43:42;12.60;99.90
14049;DHT22;7099;53.922;10.728;2022-09-17T00:48:16;12.60;99.90
14049;DHT22;7099;53.922;10.728;2022-09-17T00:52:53;12.60;99.90
14049;DHT22;7099;53.922;10.728;2022-09-17T00:57:20;12.70;99.90
14049;DHT22;7099;53.922;10.728;2022-09-17T01:01:45;12.70;99.90
14049;DHT22;7099;53.922;10.728;2022-09-17T01:15:59;12.80;99.90
14049;DHT22;7099;53.922;10.728;2022-09-17T01:35:34;13.00;99.90
14049;DHT22;7099;53.922;10.728;2022-09-17T01:40:23;13.00;99.90
14049;DHT22;7099;53.922;10.728;2022-09-17T01:50:10;13.10;99.90
14049;DHT22;7099;53.922;10.728;2022-09-17T01:54:46;13.10;99.90
14049;DHT22;7099;53.922;10.728;2022-09-17T01:59:19;13.10;99.90
14049;DHT22;7099;53.922;10.728;2022-09-17T02:03:56;13.20;99.90
14049;DHT22;7099;53.922;10.728;2022-09-17T02:08:29;13.20;99.90
14049;DHT22;7099;53.922;10.728;2022-09-17T02:13:05;13.20;99.90
14049;DHT22;7099;53.922;10.728;2022-09-17T02:17:49;13.20;99.90
14049;DHT22;7099;53.922;10.728;2022-09-17T02:27:05;13.30;99.90
14049;DHT22;7099;53.922;10.728;2022-09-17T02:31:32;13.30;99.90
14049;DHT22;7099;53.922;10.728;2022-09-17T02:35:57;13.30;99.90
14049;DHT22;7099;53.922;10.728;2022-09-17T02:40:24;13.30;99.90
14049;DHT22;7099;53.922;10.728;2022-09-17T02:50:07;13.40;99.90
14049;DHT22;7099;53.922;10.728;2022-09-17T02:55:00;13.30;99.90
14049;DHT22;7099;53.922;10.728;2022-09-17T03:04:17;13.40;99.90
14049;DHT22;7099;53.922;10.728;2022-09-17T03:08:45;13.40;99.90
14049;DHT22;7099;53.922;10.728;2022-09-17T03:13:14;13.40;99.90
14049;DHT22;7099;53.922;10.728;2022-09-17T03:17:40;13.40;99.90
14049;DHT22;7099;53.922;10.728;2022-09-17T03:22:05;13.40;99.90
14049;DHT22;7099;53.922;10.728;2022-09-17T03:26:30;13.40;99.90
14049;DHT22;7099;53.922;10.728;2022-09-17T03:30:55;13.40;99.90
14049;DHT22;7099;53.922;10.728;2022-09-17T03:35:21;13.30;99.90
14049;DHT22;7099;53.922;10.728;2022-09-17T03:39:46;13.30;99.90
14049;DHT22;7099;53.922;10.728;2022-09-17T03:44:11;13.30;99.90
14049;DHT22;7099;53.922;10.728;2022-09-17T03:48:37;13.30;99.90
14049;DHT22;7099;53.922;10.728;2022-09-17T03:53:03;13.30;99.90
14049;DHT22;7099;53.922;10.728;2022-09-17T03:57:28;13.20;99.90
14049;DHT22;7099;53.922;10.728;2022-09-17T04:01:54;13.20;99.90
14049;DHT22;7099;53.922;10.728;2022-09-17T04:06:20;13.10;99.90
14049;DHT22;7099;53.922;10.728;2022-09-17T04:10:45;13.00;99.90
14049;DHT22;7099;53.922;10.728;2022-09-17T04:15:11;13.00;99.90
14049;DHT22;7099;53.922;10.728;2022-09-17T04:19:37;12.90;99.90
14049;DHT22;7099;53.922;10.728;2022-09-17T04:24:02;12.90;99.90
14049;DHT22;7099;53.922;10.728;2022-09-17T04:28:27;12.80;99.90
14049;DHT22;7099;53.922;10.728;2022-09-17T04:32:53;12.80;99.90
14049;DHT22;7099;53.922;10.728;2022-09-17T04:37:18;12.80;99.90
14049;DHT22;7099;53.922;10.728;2022-09-17T04:41:43;12.70;99.90
14049;DHT22;7099;53.922;10.728;2022-09-17T04:46:09;12.60;99.90
14049;DHT22;7099;53.922;10.728;2022-09-17T04:50:35;12.60;99.90
14049;DHT22;7099;53.922;10.728;2022-09-17T04:55:00;12.50;99.90
14049;DHT22;7099;53.922;10.728;2022-09-17T04:59:25;12.50;99.90
14049;DHT22;7099;53.922;10.728;2022-09-17T05:03:50;12.40;99.90
14049;DHT22;7099;53.922;10.728;2022-09-17T05:08:16;12.40;99.90
14049;DHT22;7099;53.922;10.728;2022-09-17T05:12:49;12.40;99.90
14049;DHT22;7099;53.922;10.728;2022-09-17T05:17:15;12.40;99.90
14049;DHT22;7099;53.922;10.728;2022-09-17T05:21:41;12.30;99.90
14049;DHT22;7099;53.922;10.728;2022-09-17T05:26:06;12.30;99.90
14049;DHT22;7099;53.922;10.728;2022-09-17T05:30:31;12.30;99.90
14049;DHT22;7099;53.922;10.728;2022-09-17T05:34:57;12.20;99.90
14049;DHT22;7099;53.922;10.728;2022-09-17T05:39:27;12.20;99.90
14049;DHT22;7099;53.922;10.728;2022-09-17T05:43:52;12.10;99.90
14049;DHT22;7099;53.922;10.728;2022-09-17T05:48:18;12.10;99.90
14049;DHT22;7099;53.922;10.728;2022-09-17T05:52:43;12.10;99.90
14049;DHT22;7099;53.922;10.728;2022-09-17T05:57:08;12.10;99.90
14049;DHT22;7099;53.922;10.728;2022-09-17T06:01:33;12.10;99.90
14049;DHT22;7099;53.922;10.728;2022-09-17T06:05:59;12.10;99.90
14049;DHT22;7099;53.922;10.728;2022-09-17T06:10:24;12.10;99.90
14049;DHT22;7099;53.922;10.728;2022-09-17T06:14:50;12.10;99.90
14049;DHT22;7099;53.922;10.728;2022-09-17T06:19:15;12.20;99.90
14049;DHT22;7099;53.922;10.728;2022-09-17T06:23:40;12.20;99.90
14049;DHT22;7099;53.922;10.728;2022-09-17T06:28:07;12.30;99.90
14049;DHT22;7099;53.922;10.728;2022-09-17T06:32:32;12.40;99.90
14049;DHT22;7099;53.922;10.728;2022-09-17T06:36:57;12.40;99.90
14049;DHT22;7099;53.922;10.728;2022-09-17T06:41:23;12.50;99.90
14049;DHT22;7099;53.922;10.728;2022-09-17T06:45:56;12.50;99.90
14049;DHT22;7099;53.922;10.728;2022-09-17T06:50:23;12.60;99.90
14049;DHT22;7099;53.922;10.728;2022-09-17T06:54:49;12.70;99.90
14049;DHT22;7099;53.922;10.728;2022-09-17T06:59:14;12.80;99.90
14049;DHT22;7099;53.922;10.728;2022-09-17T07:03:41;12.90;99.90
14049;DHT22;7099;53.922;10.728;2022-09-17T07:08:07;13.00;99.90
14049;DHT22;7099;53.922;10.728;2022-09-17T07:12:32;13.10;99.90
14049;DHT22;7099;53.922;10.728;2022-09-17T07:16:57;13.20;99.90
14049;DHT22;7099;53.922;10.728;2022-09-17T07:21:23;13.30;99.90
14049;DHT22;7099;53.922;10.728;2022-09-17T07:25:57;13.40;99.90
14049;DHT22;7099;53.922;10.728;2022-09-17T07:30:23;13.50;99.90
14049;DHT22;7099;53.922;10.728;2022-09-17T07:34:49;13.60;99.90
14049;DHT22;7099;53.922;10.728;2022-09-17T07:39:14;13.70;99.90
14049;DHT22;7099;53.922;10.728;2022-09-17T07:43:40;13.80;99.90
14049;DHT22;7099;53.922;10.728;2022-09-17T07:48:06;14.00;99.90
14049;DHT22;7099;53.922;10.728;2022-09-17T07:52:31;14.10;99.90
14049;DHT22;7099;53.922;10.728;2022-09-17T07:56:56;14.10;99.90
14049;DHT22;7099;53.922;10.728;2022-09-17T08:01:22;14.20;99.90
14049;DHT22;7099;53.922;10.728;2022-09-17T08:05:48;14.30;99.90
14049;DHT22;7099;53.922;10.728;2022-09-17T08:10:13;14.40;99.90
14049;DHT22;7099;53.922;10.728;2022-09-17T08:14:38;14.40;99.90
14049;DHT22;7099;53.922;10.728;2022-09-17T08:19:04;14.40;99.90
14049;DHT22;7099;53.922;10.728;2022-09-17T08:23:32;14.40;99.90
14049;DHT22;7099;53.922;10.728;2022-09-17T08:27:58;14.50;99.90
14049;DHT22;7099;53.922;10.728;2022-09-17T08:32:24;14.50;99.90
14049;DHT22;7099;53.922;10.728;2022-09-17T08:36:50;14.50;99.90
14049;DHT22;7099;53.922;10.728;2022-09-17T08:45:58;14.50;99.90
14049;DHT22;7099;53.922;10.728;2022-09-17T08:50:28;14.60;99.90
14049;DHT22;7099;53.922;10.728;2022-09-17T08:55:18;14.60;99.90
14049;DHT22;7099;53.922;10.728;2022-09-17T09:00:12;14.70;99.90
14049;DHT22;7099;53.922;10.728;2022-09-17T09:04:51;14.90;99.90
14049;DHT22;7099;53.922;10.728;2022-09-17T09:09:24;15.00;99.90
14049;DHT22;7099;53.922;10.728;2022-09-17T09:14:12;15.10;99.90
14049;DHT22;7099;53.922;10.728;2022-09-17T09:19:04;15.30;99.90
14049;DHT22;7099;53.922;10.728;2022-09-17T09:23:52;15.30;99.90
14049;DHT22;7099;53.922;10.728;2022-09-17T09:33:01;15.60;99.90
14049;DHT22;7099;53.922;10.728;2022-09-17T09:37:32;15.60;99.90
14049;DHT22;7099;53.922;10.728;2022-09-17T09:47:23;16.10;99.90
14049;DHT22;7099;53.922;10.728;2022-09-17T09:52:37;16.30;99.90
14049;DHT22;7099;53.922;10.728;2022-09-17T09:57:02;16.50;99.90
14049;DHT22;7099;53.922;10.728;2022-09-17T10:01:33;16.60;99.90
14049;DHT22;7099;53.922;10.728;2022-09-17T10:06:06;16.60;99.90
14049;DHT22;7099;53.922;10.728;2022-09-17T10:10:35;16.80;99.90
14049;DHT22;7099;53.922;10.728;2022-09-17T10:15:26;16.90;99.90
14049;DHT22;7099;53.922;10.728;2022-09-17T10:24:31;17.10;99.90
14049;DHT22;7099;53.922;10.728;2022-09-17T10:29:00;17.10;99.90
14049;DHT22;7099;53.922;10.728;2022-09-17T10:33:28;17.00;99.90
14049;DHT22;7099;53.922;10.728;2022-09-17T10:37:54;17.00;99.90
14049;DHT22;7099;53.922;10.728;2022-09-17T10:42:23;17.10;99.90
14049;DHT22;7099;53.922;10.728;2022-09-17T10:46:49;17.30;99.90
14049;DHT22;7099;53.922;10.728;2022-09-17T10:51:21;17.40;99.90
14049;DHT22;7099;53.922;10.728;2022-09-17T10:56:09;17.50;99.90
14049;DHT22;7099;53.922;10.728;2022-09-17T11:16:02;17.50;99.90
14049;DHT22;7099;53.922;10.728;2022-09-17T11:25:44;17.70;99.90
14049;DHT22;7099;53.922;10.728;2022-09-17T11:30:15;17.70;99.90
14049;DHT22;7099;53.922;10.728;2022-09-17T11:35:06;17.60;99.90
14049;DHT22;7099;53.922;10.728;2022-09-17T11:39:44;17.50;99.90
14049;DHT22;7099;53.922;10.728;2022-09-17T11:44:37;17.40;99.90
14049;DHT22;7099;53.922;10.728;2022-09-17T11:49:24;17.40;99.90
14049;DHT22;7099;53.922;10.728;2022-09-17T11:54:26;17.40;99.90
14049;DHT22;7099;53.922;10.728;2022-09-17T12:23:10;18.10;99.90
14049;DHT22;7099;53.922;10.728;2022-09-17T12:38:44;18.30;99.90
14049;DHT22;7099;53.922;10.728;2022-09-17T12:48:52;18.50;99.90
14049;DHT22;7099;53.922;10.728;2022-09-17T12:53:31;18.50;99.90
14049;DHT22;7099;53.922;10.728;2022-09-17T12:58:34;18.60;99.90
14049;DHT22;7099;53.922;10.728;2022-09-17T13:03:51;18.60;99.90
14049;DHT22;7099;53.922;10.728;2022-09-17T13:08:09;18.60;99.90
14049;DHT22;7099;53.922;10.728;2022-09-17T13:22:48;18.80;99.90
14049;DHT22;7099;53.922;10.728;2022-09-17T13:27:24;18.90;99.90
14049;DHT22;7099;53.922;10.728;2022-09-17T13:31:50;18.80;99.90
14049;DHT22;7099;53.922;10.728;2022-09-17T13:36:40;18.70;99.90
14049;DHT22;7099;53.922;10.728;2022-09-17T13:41:19;18.50;99.90
14049;DHT22;7099;53.922;10.728;2022-09-17T13:50:32;17.90;99.90
14049;DHT22;7099;53.922;10.728;2022-09-17T13:55:00;17.60;99.90
14049;DHT22;7099;53.922;10.728;2022-09-17T13:59:27;17.50;99.90
14049;DHT22;7099;53.922;10.728;2022-09-17T14:03:54;17.40;99.90
14049;DHT22;7099;53.922;10.728;2022-09-17T14:08:28;17.20;99.90
14049;DHT22;7099;53.922;10.728;2022-09-17T14:12:59;17.00;99.90
14049;DHT22;7099;53.922;10.728;2022-09-17T14:17:50;16.80;99.90
14049;DHT22;7099;53.922;10.728;2022-09-17T14:22:24;16.60;99.90
14049;DHT22;7099;53.922;10.728;2022-09-17T14:27:17;16.40;99.90
14049;DHT22;7099;53.922;10.728;2022-09-17T14:31:56;16.40;99.90
14049;DHT22;7099;53.922;10.728;2022-09-17T14:36:22;16.30;99.90
14049;DHT22;7099;53.922;10.728;2022-09-17T14:50:23;16.10;99.90
14049;DHT22;7099;53.922;10.728;2022-09-17T14:55:08;16.10;99.90
14049;DHT22;7099;53.922;10.728;2022-09-17T14:59:55;16.00;99.90
14049;DHT22;7099;53.922;10.728;2022-09-17T15:04:24;16.00;99.90
14049;DHT22;7099;53.922;10.728;2022-09-17T15:08:50;15.80;99.90
14049;DHT22;7099;53.922;10.728;2022-09-17T15:13:27;15.60;99.90
14049;DHT22;7099;53.922;10.728;2022-09-17T15:17:54;15.60;99.90
14049;DHT22;7099;53.922;10.728;2022-09-17T15:22:21;15.70;99.90
14049;DHT22;7099;53.922;10.728;2022-09-17T15:26:52;15.80;99.90
14049;DHT22;7099;53.922;10.728;2022-09-17T15:31:19;15.80;99.90
14049;DHT22;7099;53.922;10.728;2022-09-17T15:36:01;15.80;99.90
14049;DHT22;7099;53.922;10.728;2022-09-17T15:40:46;15.70;99.90
14049;DHT22;7099;53.922;10.728;2022-09-17T15:45:21;15.60;99.90
14049;DHT22;7099;53.922;10.728;2022-09-17T15:50:11;15.60;99.90
14049;DHT22;7099;53.922;10.728;2022-09-17T15:54:41;15.40;99.90
14049;DHT22;7099;53.922;10.728;2022-09-17T16:08:23;15.30;99.90
14049;DHT22;7099;53.922;10.728;2022-09-17T16:12:57;15.20;99.90
14049;DHT22;7099;53.922;10.728;2022-09-17T16:22:11;15.10;99.90
14049;DHT22;7099;53.922;10.728;2022-09-17T16:26:36;14.90;99.90
14049;DHT22;7099;53.922;10.728;2022-09-17T16:31:02;14.80;99.90
14049;DHT22;7099;53.922;10.728;2022-09-17T16:35:27;14.70;99.90
14049;DHT22;7099;53.922;10.728;2022-09-17T16:39:52;14.50;99.90
14049;DHT22;7099;53.922;10.728;2022-09-17T16:44:17;14.40;99.90
14049;DHT22;7099;53.922;10.728;2022-09-17T16:48:43;14.30;99.90
14049;DHT22;7099;53.922;10.728;2022-09-17T16:53:10;14.30;99.90
14049;DHT22;7099;53.922;10.728;2022-09-17T16:57:35;14.20;99.90
14049;DHT22;7099;53.922;10.728;2022-09-17T17:02:00;14.00;99.90
14049;DHT22;7099;53.922;10.728;2022-09-17T17:06:26;13.80;99.90
14049;DHT22;7099;53.922;10.728;2022-09-17T17:10:51;13.60;99.90
14049;DHT22;7099;53.922;10.728;2022-09-17T17:15:17;13.50;99.90
14049;DHT22;7099;53.922;10.728;2022-09-17T17:19:43;13.50;99.90
14049;DHT22;7099;53.922;10.728;2022-09-17T17:24:10;13.40;99.90
14049;DHT22;7099;53.922;10.728;2022-09-17T17:28:35;13.30;99.90
14049;DHT22;7099;53.922;10.728;2022-09-17T17:33:01;13.20;99.90
14049;DHT22;7099;53.922;10.728;2022-09-17T17:37:27;13.20;99.90
14049;DHT22;7099;53.922;10.728;2022-09-17T17:41:53;13.20;99.90
14049;DHT22;7099;53.922;10.728;2022-09-17T17:46:19;13.20;99.90
14049;DHT22;7099;53.922;10.728;2022-09-17T17:50:45;13.10;99.90
14049;DHT22;7099;53.922;10.728;2022-09-17T17:55:10;13.10;99.90
14049;DHT22;7099;53.922;10.728;2022-09-17T17:59:35;13.10;99.90
14049;DHT22;7099;53.922;10.728;2022-09-17T18:04:02;13.00;99.90
14049;DHT22;7099;53.922;10.728;2022-09-17T18:08:29;13.00;99.90
14049;DHT22;7099;53.922;10.728;2022-09-17T18:12:54;12.90;99.90
14049;DHT22;7099;53.922;10.728;2022-09-17T18:17:19;13.00;99.90
14049;DHT22;7099;53.922;10.728;2022-09-17T18:21:45;13.00;99.90
14049;DHT22;7099;53.922;10.728;2022-09-17T18:26:25;13.00;99.90
14049;DHT22;7099;53.922;10.728;2022-09-17T18:30:51;13.10;99.90
14049;DHT22;7099;53.922;10.728;2022-09-17T18:35:16;13.10;99.90
14049;DHT22;7099;53.922;10.728;2022-09-17T18:39:43;13.10;99.90
14049;DHT22;7099;53.922;10.728;2022-09-17T18:44:22;13.10;99.90
14049;DHT22;7099;53.922;10.728;2022-09-17T18:48:52;13.00;99.90
14049;DHT22;7099;53.922;10.728;2022-09-17T18:53:18;13.00;99.90
14049;DHT22;7099;53.922;10.728;2022-09-17T18:57:44;12.90;99.90
14049;DHT22;7099;53.922;10.728;2022-09-17T19:02:13;12.90;99.90
14049;DHT22;7099;53.922;10.728;2022-09-17T19:06:38;12.90;99.90
14049;DHT22;7099;53.922;10.728;2022-09-17T19:11:04;12.90;99.90
14049;DHT22;7099;53.922;10.728;2022-09-17T19:15:32;12.80;99.90
14049;DHT22;7099;53.922;10.728;2022-09-17T19:19:57;12.90;99.90
14049;DHT22;7099;53.922;10.728;2022-09-17T19:24:22;12.90;99.90
14049;DHT22;7099;53.922;10.728;2022-09-17T19:28:54;12.80;99.90
14049;DHT22;7099;53.922;10.728;2022-09-17T19:33:21;12.80;99.90
14049;DHT22;7099;53.922;10.728;2022-09-17T19:37:47;12.80;99.90
14049;DHT22;7099;53.922;10.728;2022-09-17T19:42:12;12.70;99.90
14049;DHT22;7099;53.922;10.728;2022-09-17T19:46:37;12.70;99.90
14049;DHT22;7099;53.922;10.728;2022-09-17T19:51:03;12.60;99.90
14049;DHT22;7099;53.922;10.728;2022-09-17T19:55:29;12.70;99.90
14049;DHT22;7099;53.922;10.728;2022-09-17T19:59:54;12.60;99.90
14049;DHT22;7099;53.922;10.728;2022-09-17T20:04:21;12.60;99.90
14049;DHT22;7099;53.922;10.728;2022-09-17T20:08:50;12.60;99.90
14049;DHT22;7099;53.922;10.728;2022-09-17T20:13:20;12.60;99.90
14049;DHT22;7099;53.922;10.728;2022-09-17T20:17:46;12.60;99.90
14049;DHT22;7099;53.922;10.728;2022-09-17T20:22:11;12.50;99.90
14049;DHT22;7099;53.922;10.728;2022-09-17T20:26:37;12.40;99.90
14049;DHT22;7099;53.922;10.728;2022-09-17T20:31:05;12.40;99.90
14049;DHT22;7099;53.922;10.728;2022-09-17T20:35:34;12.40;99.90
14049;DHT22;7099;53.922;10.728;2022-09-17T20:39:59;12.40;99.90
14049;DHT22;7099;53.922;10.728;2022-09-17T20:44:25;12.40;99.90
14049;DHT22;7099;53.922;10.728;2022-09-17T20:48:50;12.40;99.90
14049;DHT22;7099;53.922;10.728;2022-09-17T20:53:16;12.30;99.90
14049;DHT22;7099;53.922;10.728;2022-09-17T20:57:41;12.30;99.90
14049;DHT22;7099;53.922;10.728;2022-09-17T21:02:08;12.30;99.90
14049;DHT22;7099;53.922;10.728;2022-09-17T21:06:40;12.30;99.90
14049;DHT22;7099;53.922;10.728;2022-09-17T21:11:06;12.30;99.90
14049;DHT22;7099;53.922;10.728;2022-09-17T21:15:31;12.30;99.90
14049;DHT22;7099;53.922;10.728;2022-09-17T21:19:56;12.40;99.90
14049;DHT22;7099;53.922;10.728;2022-09-17T21:24:22;12.40;99.90
14049;DHT22;7099;53.922;10.728;2022-09-17T21:28:49;12.40;99.90
14049;DHT22;7099;53.922;10.728;2022-09-17T21:33:15;12.40;99.90
14049;DHT22;7099;53.922;10.728;2022-09-17T21:37:45;12.30;99.90
14049;DHT22;7099;53.922;10.728;2022-09-17T21:42:11;12.30;99.90
14049;DHT22;7099;53.922;10.728;2022-09-17T21:46:36;12.30;99.90
14049;DHT22;7099;53.922;10.728;2022-09-17T21:51:04;12.30;99.90
14049;DHT22;7099;53.922;10.728;2022-09-17T21:55:34;12.20;99.90
14049;DHT22;7099;53.922;10.728;2022-09-17T22:00:00;12.20;99.90
14049;DHT22;7099;53.922;10.728;2022-09-17T22:04:25;12.20;99.90
14049;DHT22;7099;53.922;10.728;2022-09-17T22:08:51;12.10;99.90
14049;DHT22;7099;53.922;10.728;2022-09-17T22:13:16;12.10;99.90
14049;DHT22;7099;53.922;10.728;2022-09-17T22:17:42;12.00;99.90
14049;DHT22;7099;53.922;10.728;2022-09-17T22:22:07;12.00;99.90
14049;DHT22;7099;53.922;10.728;2022-09-17T22:26:36;12.00;99.90
14049;DHT22;7099;53.922;10.728;2022-09-17T22:31:05;11.90;99.90
14049;DHT22;7099;53.922;10.728;2022-09-17T22:35:32;11.90;99.90
14049;DHT22;7099;53.922;10.728;2022-09-17T22:39:57;11.90;99.90
14049;DHT22;7099;53.922;10.728;2022-09-17T22:44:23;11.80;99.90
14049;DHT22;7099;53.922;10.728;2022-09-17T22:48:48;11.80;99.90
14049;DHT22;7099;53.922;10.728;2022-09-17T22:53:13;11.80;99.90
14049;DHT22;7099;53.922;10.728;2022-09-17T22:57:39;11.80;99.90
14049;DHT22;7099;53.922;10.728;2022-09-17T23:02:04;11.80;99.90
14049;DHT22;7099;53.922;10.728;2022-09-17T23:06:32;11.80;99.90
14049;DHT22;7099;53.922;10.728;2022-09-17T23:10:59;11.70;99.90
14049;DHT22;7099;53.922;10.728;2022-09-17T23:15:24;11.70;99.90
14049;DHT22;7099;53.922;10.728;2022-09-17T23:19:51;11.70;99.90
14049;DHT22;7099;53.922;10.728;2022-09-17T23:24:19;11.60;99.90
14049;DHT22;7099;53.922;10.728;2022-09-17T23:28:46;11.70;99.90
14049;DHT22;7099;53.922;10.728;2022-09-17T23:33:13;11.60;99.90
14049;DHT22;7099;53.922;10.728;2022-09-17T23:37:38;11.60;99.90
14049;DHT22;7099;53.922;10.728;2022-09-17T23:42:04;11.60;99.90
14049;DHT22;7099;53.922;10.728;2022-09-17T23:46:32;11.60;99.90
14049;DHT22;7099;53.922;10.728;2022-09-17T23:50:58;11.60;99.90
14049;DHT22;7099;53.922;10.728;2022-09-17T23:55:24;11.60;99.90
14049;DHT22;7099;53.922;10.728;2022-09-17T23:59:49;11.60;99.90
